Terminal Aerodrome Forecast
Issued by NWS Burlington, VT

Home | Current Version | Previous Version | Text Only | Print | Product List | Glossary On
Versions: 1 2 3 4 5 6 7 8 9 10 11 12 13
000
FTUS41 KBTV 201121
TAFBTV
TAF
KBTV 201121Z 2012/2112 28007KT P6SM FEW200
     FM201500 29010G17KT P6SM SKC
     FM202000 32007KT P6SM SKC
     FM202300 VRB03KT P6SM SKC=

USA.gov is the U.S. government's official web portal to all federal, state and local government web resources and services.